»·PEaware :: N12PL KRDD-KVNY

N12PL :: KRDD-KVNY

FLIGHT INFORMATION

Flight Status: Arrived
Operator: Privately registered:
United States
More flights under this callsign
Pilot: Ethan S. (29221)
Aircraft: CANADAIR CL-600 CHALLENGER
(CL60)
More flights by this aircraft type
Origin: KRDD Redding Mun
United States
Destination: KVNY Van Nuys
United States
More flights between these airports :: More routes between these airports
Route: RBL SAC RDHOT IVINS1
File this flight plan on PilotEdge
Remarks:
Altitude:
(Current/Filed)
37,000ft
Speed:
(Current/Filed)
465kts
Departed: 08-Nov-23 12:54 PM
Arrived: 08-Nov-23 02:00 PM
Distance/Time
Traveled:
419nm/1:06
Distance/Time
To Go:
Arrived

Flight Plot

Page will automatically refresh every two minutes.

Flight plan parsing failed; only flown route is shown


Map Options




Map Legend


Flown Route
Filed Route
Departure Airport
Arrival Airport
Navaid (VOR, NDB)
Fix

Horizontal Profiles

Position Reports

Time Latitude Longitude Heading Altitude Ground
Speed
08-Nov-23 12:25 40.508958 -122.297915 359 502ft 0kts
08-Nov-23 12:26 40.508958 -122.297915 359 502ft 0kts
08-Nov-23 12:27 40.508958 -122.297915 359 502ft 0kts
08-Nov-23 12:28 40.508958 -122.297915 359 502ft 0kts
08-Nov-23 12:29 40.508958 -122.297915 359 502ft 0kts
08-Nov-23 12:30 40.508958 -122.297915 359 502ft 0kts
08-Nov-23 12:31 40.508958 -122.297915 359 502ft 0kts
08-Nov-23 12:32 40.508958 -122.297915 359 502ft 0kts
08-Nov-23 12:33 40.508958 -122.297915 359 502ft 0kts
08-Nov-23 12:34 40.508958 -122.297915 359 502ft 0kts
08-Nov-23 12:35 40.508958 -122.297915 359 502ft 0kts
08-Nov-23 12:36 40.508958 -122.297915 359 502ft 0kts
08-Nov-23 12:37 40.508958 -122.297915 359 502ft 0kts
08-Nov-23 12:38 40.508958 -122.297915 359 502ft 0kts
08-Nov-23 12:39 40.508958 -122.297915 359 502ft 0kts
08-Nov-23 12:40 40.508958 -122.297915 359 502ft 0kts
08-Nov-23 12:41 40.508958 -122.297915 359 502ft 0kts
08-Nov-23 12:42 40.508958 -122.297915 359 502ft 0kts
08-Nov-23 12:43 40.508958 -122.297915 359 502ft 0kts
08-Nov-23 12:44 40.508958 -122.297915 359 502ft 0kts
08-Nov-23 12:45 40.508958 -122.297915 359 502ft 0kts
08-Nov-23 12:46 40.508958 -122.297915 359 502ft 0kts
08-Nov-23 12:47 40.508958 -122.297915 359 502ft 0kts
08-Nov-23 12:48 40.508958 -122.297915 359 502ft 0kts
08-Nov-23 12:49 40.508958 -122.297915 359 502ft 0kts
08-Nov-23 12:50 40.509118 -122.298002 283 502ft 2kts
08-Nov-23 12:51 40.507909 -122.298622 180 502ft 8kts
08-Nov-23 12:52 40.503554 -122.298037 149 500ft 12kts
08-Nov-23 12:52 40.501929 -122.295956 135 500ft 4kts
08-Nov-23 12:54 40.519889 -122.294807 358 1163ft 168kts
08-Nov-23 12:55 40.566535 -122.330761 278 4589ft 259kts
08-Nov-23 12:56 40.517763 -122.387214 166 8741ft 283kts
08-Nov-23 12:56 40.453437 -122.364063 164 12368ft 310kts
08-Nov-23 12:57 40.363489 -122.331760 165 16271ft 356kts
08-Nov-23 12:58 40.264894 -122.296398 166 19962ft 380kts
08-Nov-23 13:00 40.141812 -122.252297 167 23518ft 406kts
08-Nov-23 13:01 40.030528 -122.208238 164 25986ft 431kts
08-Nov-23 13:01 39.933414 -122.167113 164 27699ft 449kts
08-Nov-23 13:02 39.812328 -122.116113 164 29466ft 468kts
08-Nov-23 13:03 39.685643 -122.062921 164 31276ft 477kts
08-Nov-23 13:05 39.539174 -122.001941 164 33578ft 471kts
08-Nov-23 13:05 39.435369 -121.958855 164 34964ft 469kts
08-Nov-23 13:06 39.312573 -121.907909 165 36665ft 460kts
08-Nov-23 13:07 39.187927 -121.856491 165 36873ft 483kts
08-Nov-23 13:08 39.056937 -121.802635 165 36858ft 500kts
08-Nov-23 13:09 38.924342 -121.748253 165 36843ft 498kts
08-Nov-23 13:10 38.792459 -121.694351 165 36899ft 497kts
08-Nov-23 13:11 38.660406 -121.640598 165 36876ft 496kts
08-Nov-23 13:12 38.528873 -121.587261 165 36890ft 496kts
08-Nov-23 13:13 38.397706 -121.532962 164 36928ft 494kts
08-Nov-23 13:14 38.267133 -121.476218 164 36952ft 493kts
08-Nov-23 13:15 38.136829 -121.419823 164 36973ft 493kts
08-Nov-23 13:16 38.007139 -121.363951 164 36940ft 492kts
08-Nov-23 13:17 37.876813 -121.308046 165 36933ft 491kts
08-Nov-23 13:18 37.747707 -121.252848 165 36947ft 491kts
08-Nov-23 13:19 37.618174 -121.197713 165 36992ft 490kts
08-Nov-23 13:20 37.488842 -121.142839 165 37003ft 489kts
08-Nov-23 13:21 37.359848 -121.088345 166 37080ft 487kts
08-Nov-23 13:22 37.231560 -121.034346 166 37126ft 487kts
08-Nov-23 13:23 37.102634 -120.980258 166 37146ft 487kts
08-Nov-23 13:24 36.974225 -120.926541 166 37171ft 485kts
08-Nov-23 13:25 36.846404 -120.873242 166 37172ft 485kts
08-Nov-23 13:26 36.718078 -120.819970 166 37218ft 485kts
08-Nov-23 13:27 36.590280 -120.767105 167 37282ft 484kts
08-Nov-23 13:28 36.462524 -120.714452 167 37318ft 483kts
08-Nov-23 13:29 36.335112 -120.662109 167 37325ft 481kts
08-Nov-23 13:30 36.208021 -120.610074 167 37350ft 481kts
08-Nov-23 13:31 36.080741 -120.558141 167 37371ft 479kts
08-Nov-23 13:32 35.954269 -120.506733 167 37407ft 478kts
08-Nov-23 13:33 35.830755 -120.456715 167 37435ft 478kts
08-Nov-23 13:34 35.704307 -120.405663 168 37473ft 477kts
08-Nov-23 13:35 35.580101 -120.345241 154 37470ft 490kts
08-Nov-23 13:36 35.472802 -120.238139 145 37391ft 497kts
08-Nov-23 13:37 35.368764 -120.129187 143 34585ft 489kts
08-Nov-23 13:38 35.266093 -120.022191 142 31729ft 480kts
08-Nov-23 13:39 35.165489 -119.917434 142 29149ft 467kts
08-Nov-23 13:40 35.068343 -119.817058 141 26963ft 452kts
08-Nov-23 13:41 34.973928 -119.720052 142 24751ft 436kts
08-Nov-23 13:42 34.882629 -119.626643 141 22577ft 422kts
08-Nov-23 13:43 34.807646 -119.520650 128 20381ft 407kts
08-Nov-23 13:44 34.738561 -119.414844 127 18380ft 393kts
08-Nov-23 13:45 34.671716 -119.312439 127 16479ft 375kts
08-Nov-23 13:46 34.613907 -119.212205 117 14713ft 352kts
08-Nov-23 13:47 34.565878 -119.112813 117 13020ft 331kts
08-Nov-23 13:48 34.506255 -119.033623 140 11508ft 315kts
08-Nov-23 13:49 34.438449 -118.972231 137 10180ft 294kts
08-Nov-23 13:50 34.376121 -118.910471 136 9124ft 286kts
08-Nov-23 13:51 34.317407 -118.846657 133 8091ft 281kts
08-Nov-23 13:52 34.260139 -118.783848 133 7062ft 276kts
08-Nov-23 13:53 34.205703 -118.724412 132 6311ft 251kts
08-Nov-23 13:54 34.157984 -118.672020 125 5416ft 225kts
08-Nov-23 13:55 34.147709 -118.614662 82 3949ft 156kts
08-Nov-23 13:56 34.150397 -118.563614 79 2860ft 149kts
08-Nov-23 13:57 34.153599 -118.514687 78 2080ft 146kts
08-Nov-23 13:58 34.175613 -118.487135 352 1199ft 125kts
08-Nov-23 13:59 34.205245 -118.489953 355 774ft 38kts
08-Nov-23 14:00 34.205094 -118.491099 175 773ft 18kts
08-Nov-23 14:01 34.202747 -118.491700 261 767ft 5kts
08-Nov-23 14:02 34.202831 -118.491740 0 767ft 0kts
08-Nov-23 14:03 34.202831 -118.491740 0 767ft 0kts
08-Nov-23 14:04 34.202831 -118.491740 0 767ft 0kts

Navigation Log

Ident Type
Flight plan parsing failed, navigation log unavailable